Aeroporto :
LOGIN :

Iscrizione | Disclaimer

   EN    FR    IT 

 










Sommario :    VFR   VFR Marginale   IFR   IFR Intensivo   IFR Molto Intensivo
Visibilità : 
Base nubi : 
>= 8 km
>= 3000ft
5 / 8 km
1000 / 3000 ft
1500m / 5 km
500 / 1000 ft
800 / 1500m
200 / 500 ft
< 800m
< 200 ft
Simboli :   Temporali  Nebbia  Neve Forte  Precipitazioni Forti  Vento > 20 kt
SIGMETs :   Varie  Temporali  Ghiacco  Turbolenza  Onda orograficha  Ceneri Vulcaniche







- Altitudine del aeroporto : 461 ft
- Codice IATA : WIE


ETOU - Wiesbaden Army

METARs OBSOLETI :
  • 261311Z AUTO 26010KT 9999 FEW020 OVC055 11/08 A2997 RMK AO2 RAB01E11 SLP153 $
  • 261301Z AUTO 26010KT 9999 -RA FEW020 SCT030 SCT036 OVC055 11/08 A2998 RMK AO2 RAB01 SLP156 $

TAF TAF ETOU
Valido dal 26 a 11 ore il 27 a 17 ore UTC


261106Z 2611/2717 26009KT 9000 -SHRA SCT015 BKN020 620503 QNH2994INS
BECMG 2613/2614 VRB06KT 9999 NSW BKN020 QNH2994INS
BECMG 2703/2704 20006KT 8000 BR SCT020 QNH2994INS
BECMG 2707/2708 20010G15KT 9000 -RA OVC015 620409 QNH2994INS
BECMG 2712/2713 25012G20KT 8000 -SHRA SCT025 BKN060 620603 QNH2991INS TX15/2614Z TN05/2703Z
Nessun NOTAM noto per questo aeroporto.



MetMap, La meteo Aeronautica in un colpo d'occhio ! - Copyright ORBIFLY Dicembre 2007 - Disclaimer

ORBIFLY MET'MAP TEAM :

Programmazione e sviluppo : Alexandra Zaïnal
Concezione e sviluppo : Baudouin d'Aumeries
Co-Programmazione e sviluppo : Marc-Olivier Méhu
Supporto tecnico e logistico : Manuel Goepfert
Aiuto per la traduzione : Arnaldo La Scala

Contatto : metmap@orbifly.com




FONTI E CREDITI :

   NOAA